Terminal Aerodrome Forecast
Issued by NWS

Home | Current Version | Previous Version | Text Only | Print | Product List | Glossary On
Versions: 1 2 3 4 5 6 7 8 9 10 11 12 13 14 15 16 17 18 19 20 21
000
FTUS45 KPIH 302300
TAFSUN
TAF
KSUN 302321Z 0100/0124 27010KT P6SM FEW100
     FM010200 32010KT P6SM FEW150
     FM011200 31007KT P6SM FEW200
     FM011700 13007KT P6SM FEW120
      AMD LTD TO CLD VIS AND WIND 0105/0113=

USA.gov is the U.S. government's official web portal to all federal, state and local government web resources and services.